sensor_id;sensor_type;location;lat;lon;timestamp;P1;durP1;ratioP1;P2;durP2;ratioP2
48795;SDS011;34607;48.520;-1.330;2023-04-28T06:39:26;3.80;;;2.30;;
48795;SDS011;34607;48.520;-1.330;2023-04-28T06:41:53;3.03;;;2.65;;
48795;SDS011;34607;48.520;-1.330;2023-04-28T06:44:24;2.72;;;2.53;;
48795;SDS011;34607;48.520;-1.330;2023-04-28T06:46:51;2.53;;;2.08;;
48795;SDS011;34607;48.520;-1.330;2023-04-28T06:49:18;2.90;;;2.50;;
48795;SDS011;34607;48.520;-1.330;2023-04-28T06:51:45;2.00;;;1.90;;
48795;SDS011;34607;48.520;-1.330;2023-04-28T06:54:12;1.83;;;1.65;;
48795;SDS011;34607;48.520;-1.330;2023-04-28T06:56:43;5.97;;;2.33;;
48795;SDS011;34607;48.520;-1.330;2023-04-28T06:59:10;5.93;;;2.67;;
48795;SDS011;34607;48.520;-1.330;2023-04-28T07:01:37;3.53;;;2.80;;
48795;SDS011;34607;48.520;-1.330;2023-04-28T07:04:06;2.05;;;1.80;;
48795;SDS011;34607;48.520;-1.330;2023-04-28T07:06:33;3.67;;;1.95;;
48795;SDS011;34607;48.520;-1.330;2023-04-28T07:09:00;3.42;;;1.73;;
48795;SDS011;34607;48.520;-1.330;2023-04-28T07:11:27;1.60;;;1.42;;
48795;SDS011;34607;48.520;-1.330;2023-04-28T07:13:55;3.00;;;1.63;;
48795;SDS011;34607;48.520;-1.330;2023-04-28T07:16:22;3.30;;;1.67;;
48795;SDS011;34607;48.520;-1.330;2023-04-28T07:18:49;2.72;;;1.70;;
48795;SDS011;34607;48.520;-1.330;2023-04-28T07:21:17;3.80;;;1.67;;
48795;SDS011;34607;48.520;-1.330;2023-04-28T07:23:44;3.03;;;1.83;;
48795;SDS011;34607;48.520;-1.330;2023-04-28T07:26:11;2.72;;;2.08;;
48795;SDS011;34607;48.520;-1.330;2023-04-28T07:28:40;3.17;;;1.65;;
48795;SDS011;34607;48.520;-1.330;2023-04-28T07:31:09;1.92;;;1.77;;
48795;SDS011;34607;48.520;-1.330;2023-04-28T07:33:36;2.63;;;1.60;;
48795;SDS011;34607;48.520;-1.330;2023-04-28T07:36:03;2.00;;;1.80;;
48795;SDS011;34607;48.520;-1.330;2023-04-28T07:38:32;1.88;;;1.70;;
48795;SDS011;34607;48.520;-1.330;2023-04-28T07:40:59;1.85;;;1.52;;
48795;SDS011;34607;48.520;-1.330;2023-04-28T07:43:26;2.85;;;1.63;;
48795;SDS011;34607;48.520;-1.330;2023-04-28T07:45:53;1.83;;;1.55;;
48795;SDS011;34607;48.520;-1.330;2023-04-28T07:48:22;2.00;;;1.67;;
48795;SDS011;34607;48.520;-1.330;2023-04-28T07:50:49;2.40;;;1.50;;
48795;SDS011;34607;48.520;-1.330;2023-04-28T07:53:16;2.47;;;1.30;;
48795;SDS011;34607;48.520;-1.330;2023-04-28T07:55:43;2.50;;;1.48;;
48795;SDS011;34607;48.520;-1.330;2023-04-28T07:58:10;3.10;;;1.42;;
48795;SDS011;34607;48.520;-1.330;2023-04-28T08:00:37;2.17;;;1.40;;
48795;SDS011;34607;48.520;-1.330;2023-04-28T08:03:04;1.42;;;1.33;;
48795;SDS011;34607;48.520;-1.330;2023-04-28T08:05:35;3.20;;;1.20;;
48795;SDS011;34607;48.520;-1.330;2023-04-28T08:08:06;1.58;;;1.40;;
48795;SDS011;34607;48.520;-1.330;2023-04-28T08:10:33;1.73;;;1.33;;
48795;SDS011;34607;48.520;-1.330;2023-04-28T08:13:00;7.05;;;1.40;;
48795;SDS011;34607;48.520;-1.330;2023-04-28T08:15:27;1.90;;;1.20;;
48795;SDS011;34607;48.520;-1.330;2023-04-28T08:17:54;1.95;;;1.33;;
48795;SDS011;34607;48.520;-1.330;2023-04-28T08:20:21;1.50;;;1.17;;
48795;SDS011;34607;48.520;-1.330;2023-04-28T08:22:50;2.08;;;1.10;;
48795;SDS011;34607;48.520;-1.330;2023-04-28T08:25:17;4.53;;;2.00;;
48795;SDS011;34607;48.520;-1.330;2023-04-28T08:27:44;6.18;;;3.80;;
48795;SDS011;34607;48.520;-1.330;2023-04-28T08:30:11;7.68;;;5.53;;
48795;SDS011;34607;48.520;-1.330;2023-04-28T08:32:38;8.52;;;5.80;;
48795;SDS011;34607;48.520;-1.330;2023-04-28T08:35:06;10.25;;;5.38;;
48795;SDS011;34607;48.520;-1.330;2023-04-28T08:37:33;9.18;;;5.57;;
48795;SDS011;34607;48.520;-1.330;2023-04-28T08:40:02;9.07;;;6.13;;
48795;SDS011;34607;48.520;-1.330;2023-04-28T08:42:34;7.57;;;5.85;;
48795;SDS011;34607;48.520;-1.330;2023-04-28T08:45:02;8.65;;;5.90;;
48795;SDS011;34607;48.520;-1.330;2023-04-28T08:47:32;9.93;;;7.00;;
48795;SDS011;34607;48.520;-1.330;2023-04-28T08:50:01;10.85;;;6.47;;
48795;SDS011;34607;48.520;-1.330;2023-04-28T08:52:30;10.85;;;6.70;;
48795;SDS011;34607;48.520;-1.330;2023-04-28T08:54:58;11.13;;;6.93;;
48795;SDS011;34607;48.520;-1.330;2023-04-28T08:57:28;10.80;;;7.28;;
48795;SDS011;34607;48.520;-1.330;2023-04-28T09:00:01;11.55;;;6.75;;
48795;SDS011;34607;48.520;-1.330;2023-04-28T09:02:28;7.95;;;5.90;;
48795;SDS011;34607;48.520;-1.330;2023-04-28T09:04:55;9.25;;;5.68;;
48795;SDS011;34607;48.520;-1.330;2023-04-28T09:07:22;11.43;;;6.70;;
48795;SDS011;34607;48.520;-1.330;2023-04-28T09:09:53;11.18;;;6.13;;
48795;SDS011;34607;48.520;-1.330;2023-04-28T09:12:43;10.05;;;6.40;;
48795;SDS011;34607;48.520;-1.330;2023-04-28T09:15:41;12.43;;;7.15;;
48795;SDS011;34607;48.520;-1.330;2023-04-28T09:18:09;12.15;;;7.28;;
48795;SDS011;34607;48.520;-1.330;2023-04-28T09:20:40;10.43;;;6.43;;
48795;SDS011;34607;48.520;-1.330;2023-04-28T09:23:14;10.15;;;6.07;;
48795;SDS011;34607;48.520;-1.330;2023-04-28T09:25:55;11.63;;;5.60;;
48795;SDS011;34607;48.520;-1.330;2023-04-28T09:28:25;11.93;;;6.57;;
48795;SDS011;34607;48.520;-1.330;2023-04-28T09:30:53;8.63;;;6.22;;
48795;SDS011;34607;48.520;-1.330;2023-04-28T09:33:20;11.45;;;6.53;;
48795;SDS011;34607;48.520;-1.330;2023-04-28T09:35:47;11.15;;;7.90;;
48795;SDS011;34607;48.520;-1.330;2023-04-28T09:38:14;13.77;;;7.32;;
48795;SDS011;34607;48.520;-1.330;2023-04-28T09:40:48;10.95;;;6.90;;
48795;SDS011;34607;48.520;-1.330;2023-04-28T09:43:23;8.65;;;6.15;;
48795;SDS011;34607;48.520;-1.330;2023-04-28T09:45:54;7.22;;;5.53;;
48795;SDS011;34607;48.520;-1.330;2023-04-28T09:48:28;5.65;;;5.05;;
48795;SDS011;34607;48.520;-1.330;2023-04-28T09:50:57;6.40;;;5.70;;
48795;SDS011;34607;48.520;-1.330;2023-04-28T09:53:26;5.88;;;5.28;;
48795;SDS011;34607;48.520;-1.330;2023-04-28T09:55:54;6.22;;;5.63;;
48795;SDS011;34607;48.520;-1.330;2023-04-28T09:58:23;7.30;;;6.03;;
48795;SDS011;34607;48.520;-1.330;2023-04-28T10:00:53;6.43;;;5.82;;
48795;SDS011;34607;48.520;-1.330;2023-04-28T10:03:21;5.40;;;4.88;;
48795;SDS011;34607;48.520;-1.330;2023-04-28T10:05:50;9.98;;;6.55;;
48795;SDS011;34607;48.520;-1.330;2023-04-28T10:08:18;6.63;;;5.95;;
48795;SDS011;34607;48.520;-1.330;2023-04-28T10:10:46;6.85;;;5.25;;
48795;SDS011;34607;48.520;-1.330;2023-04-28T10:13:15;6.80;;;6.20;;
48795;SDS011;34607;48.520;-1.330;2023-04-28T10:15:43;9.15;;;4.97;;
48795;SDS011;34607;48.520;-1.330;2023-04-28T10:18:12;6.65;;;5.78;;
48795;SDS011;34607;48.520;-1.330;2023-04-28T10:20:41;10.82;;;5.20;;
48795;SDS011;34607;48.520;-1.330;2023-04-28T10:23:18;7.85;;;5.38;;
48795;SDS011;34607;48.520;-1.330;2023-04-28T10:25:56;6.65;;;5.78;;
48795;SDS011;34607;48.520;-1.330;2023-04-28T10:28:25;7.55;;;5.57;;
48795;SDS011;34607;48.520;-1.330;2023-04-28T10:31:08;6.60;;;5.07;;
48795;SDS011;34607;48.520;-1.330;2023-04-28T10:33:37;6.95;;;4.90;;
48795;SDS011;34607;48.520;-1.330;2023-04-28T10:36:05;6.90;;;5.13;;
48795;SDS011;34607;48.520;-1.330;2023-04-28T10:38:33;6.63;;;5.25;;
48795;SDS011;34607;48.520;-1.330;2023-04-28T10:41:00;9.90;;;5.47;;
48795;SDS011;34607;48.520;-1.330;2023-04-28T10:43:32;6.75;;;5.30;;
48795;SDS011;34607;48.520;-1.330;2023-04-28T10:46:04;6.15;;;5.50;;
48795;SDS011;34607;48.520;-1.330;2023-04-28T10:51:21;9.95;;;5.82;;
48795;SDS011;34607;48.520;-1.330;2023-04-28T10:59:43;7.13;;;6.00;;
48795;SDS011;34607;48.520;-1.330;2023-04-28T11:05:18;10.45;;;6.50;;
48795;SDS011;34607;48.520;-1.330;2023-04-28T11:13:52;7.18;;;6.45;;
48795;SDS011;34607;48.520;-1.330;2023-04-28T11:16:21;7.25;;;6.55;;
48795;SDS011;34607;48.520;-1.330;2023-04-28T11:18:56;6.32;;;5.80;;
48795;SDS011;34607;48.520;-1.330;2023-04-28T11:21:29;7.28;;;6.65;;
48795;SDS011;34607;48.520;-1.330;2023-04-28T11:23:58;8.35;;;7.38;;
48795;SDS011;34607;48.520;-1.330;2023-04-28T11:26:26;7.03;;;6.43;;
48795;SDS011;34607;48.520;-1.330;2023-04-28T11:28:55;9.18;;;7.05;;
48795;SDS011;34607;48.520;-1.330;2023-04-28T11:31:23;8.88;;;6.53;;
48795;SDS011;34607;48.520;-1.330;2023-04-28T11:34:02;9.85;;;7.15;;
48795;SDS011;34607;48.520;-1.330;2023-04-28T11:36:33;7.45;;;6.72;;
48795;SDS011;34607;48.520;-1.330;2023-04-28T11:39:02;8.63;;;7.72;;
48795;SDS011;34607;48.520;-1.330;2023-04-28T11:41:31;8.73;;;6.85;;
48795;SDS011;34607;48.520;-1.330;2023-04-28T11:43:59;8.07;;;7.22;;
48795;SDS011;34607;48.520;-1.330;2023-04-28T11:46:26;7.72;;;7.03;;
48795;SDS011;34607;48.520;-1.330;2023-04-28T11:49:00;8.40;;;7.70;;
48795;SDS011;34607;48.520;-1.330;2023-04-28T11:51:30;8.15;;;7.35;;
48795;SDS011;34607;48.520;-1.330;2023-04-28T11:54:00;8.43;;;7.72;;
48795;SDS011;34607;48.520;-1.330;2023-04-28T11:56:28;8.73;;;7.88;;
48795;SDS011;34607;48.520;-1.330;2023-04-28T11:59:02;8.95;;;7.97;;
48795;SDS011;34607;48.520;-1.330;2023-04-28T12:01:32;8.43;;;7.70;;
48795;SDS011;34607;48.520;-1.330;2023-04-28T12:04:02;8.25;;;7.55;;
48795;SDS011;34607;48.520;-1.330;2023-04-28T12:06:29;7.97;;;7.25;;
48795;SDS011;34607;48.520;-1.330;2023-04-28T12:08:56;8.60;;;7.75;;
48795;SDS011;34607;48.520;-1.330;2023-04-28T12:11:30;9.20;;;7.47;;
48795;SDS011;34607;48.520;-1.330;2023-04-28T12:14:03;9.20;;;7.38;;
48795;SDS011;34607;48.520;-1.330;2023-04-28T12:16:40;8.68;;;7.50;;
48795;SDS011;34607;48.520;-1.330;2023-04-28T12:19:10;8.35;;;7.55;;
48795;SDS011;34607;48.520;-1.330;2023-04-28T12:21:39;8.23;;;7.13;;
48795;SDS011;34607;48.520;-1.330;2023-04-28T12:24:16;7.65;;;6.38;;
48795;SDS011;34607;48.520;-1.330;2023-04-28T12:26:46;8.10;;;7.30;;
48795;SDS011;34607;48.520;-1.330;2023-04-28T12:32:04;6.78;;;6.18;;
48795;SDS011;34607;48.520;-1.330;2023-04-28T12:34:32;7.53;;;6.93;;
48795;SDS011;34607;48.520;-1.330;2023-04-28T12:37:00;8.10;;;7.30;;
48795;SDS011;34607;48.520;-1.330;2023-04-28T12:39:29;7.22;;;6.63;;
48795;SDS011;34607;48.520;-1.330;2023-04-28T12:41:58;8.52;;;7.68;;
48795;SDS011;34607;48.520;-1.330;2023-04-28T12:44:27;7.60;;;6.93;;
48795;SDS011;34607;48.520;-1.330;2023-04-28T12:47:00;9.77;;;8.85;;
48795;SDS011;34607;48.520;-1.330;2023-04-28T12:49:31;5.95;;;5.40;;
48795;SDS011;34607;48.520;-1.330;2023-04-28T12:51:59;6.50;;;6.00;;
48795;SDS011;34607;48.520;-1.330;2023-04-28T12:54:26;7.25;;;5.25;;
48795;SDS011;34607;48.520;-1.330;2023-04-28T12:56:53;6.93;;;5.53;;
48795;SDS011;34607;48.520;-1.330;2023-04-28T12:59:21;6.50;;;5.90;;
48795;SDS011;34607;48.520;-1.330;2023-04-28T13:01:49;6.80;;;5.47;;
48795;SDS011;34607;48.520;-1.330;2023-04-28T13:04:16;6.50;;;5.90;;
48795;SDS011;34607;48.520;-1.330;2023-04-28T13:06:43;6.70;;;6.07;;
48795;SDS011;34607;48.520;-1.330;2023-04-28T13:09:10;8.52;;;6.15;;
48795;SDS011;34607;48.520;-1.330;2023-04-28T13:11:39;6.65;;;6.05;;
48795;SDS011;34607;48.520;-1.330;2023-04-28T13:14:06;8.00;;;6.50;;
48795;SDS011;34607;48.520;-1.330;2023-04-28T13:16:35;6.38;;;5.78;;
48795;SDS011;34607;48.520;-1.330;2023-04-28T13:19:02;6.68;;;5.90;;
48795;SDS011;34607;48.520;-1.330;2023-04-28T13:21:33;5.38;;;4.78;;
48795;SDS011;34607;48.520;-1.330;2023-04-28T13:24:01;6.20;;;5.22;;
48795;SDS011;34607;48.520;-1.330;2023-04-28T13:26:29;6.80;;;4.93;;
48795;SDS011;34607;48.520;-1.330;2023-04-28T13:28:56;6.80;;;5.10;;
48795;SDS011;34607;48.520;-1.330;2023-04-28T13:31:24;6.32;;;5.47;;
48795;SDS011;34607;48.520;-1.330;2023-04-28T13:33:52;5.25;;;4.75;;
48795;SDS011;34607;48.520;-1.330;2023-04-28T13:36:19;7.82;;;4.63;;
48795;SDS011;34607;48.520;-1.330;2023-04-28T13:38:46;7.40;;;5.18;;
48795;SDS011;34607;48.520;-1.330;2023-04-28T13:41:14;5.30;;;4.70;;
48795;SDS011;34607;48.520;-1.330;2023-04-28T13:43:41;5.45;;;4.40;;
48795;SDS011;34607;48.520;-1.330;2023-04-28T13:46:08;4.57;;;4.18;;
48795;SDS011;34607;48.520;-1.330;2023-04-28T13:48:36;6.50;;;4.75;;
48795;SDS011;34607;48.520;-1.330;2023-04-28T13:51:05;5.25;;;4.75;;
48795;SDS011;34607;48.520;-1.330;2023-04-28T13:53:34;4.95;;;4.30;;
48795;SDS011;34607;48.520;-1.330;2023-04-28T13:56:02;5.53;;;4.65;;
48795;SDS011;34607;48.520;-1.330;2023-04-28T13:58:30;6.68;;;5.47;;
48795;SDS011;34607;48.520;-1.330;2023-04-28T14:00:57;5.60;;;5.10;;
48795;SDS011;34607;48.520;-1.330;2023-04-28T14:03:24;6.78;;;4.65;;
48795;SDS011;34607;48.520;-1.330;2023-04-28T14:05:53;9.30;;;5.25;;
48795;SDS011;34607;48.520;-1.330;2023-04-28T14:08:22;6.82;;;5.22;;
48795;SDS011;34607;48.520;-1.330;2023-04-28T14:10:50;5.80;;;5.25;;
48795;SDS011;34607;48.520;-1.330;2023-04-28T14:13:17;5.75;;;5.15;;
48795;SDS011;34607;48.520;-1.330;2023-04-28T14:15:45;6.15;;;4.70;;
48795;SDS011;34607;48.520;-1.330;2023-04-28T14:18:12;6.07;;;5.28;;
48795;SDS011;34607;48.520;-1.330;2023-04-28T14:20:40;5.60;;;5.10;;
48795;SDS011;34607;48.520;-1.330;2023-04-28T14:23:08;5.85;;;5.28;;
48795;SDS011;34607;48.520;-1.330;2023-04-28T14:25:36;5.55;;;5.05;;
48795;SDS011;34607;48.520;-1.330;2023-04-28T14:28:03;5.55;;;5.13;;
48795;SDS011;34607;48.520;-1.330;2023-04-28T14:30:30;6.35;;;5.40;;
48795;SDS011;34607;48.520;-1.330;2023-04-28T14:32:57;5.88;;;5.13;;
48795;SDS011;34607;48.520;-1.330;2023-04-28T14:35:25;5.97;;;4.90;;
48795;SDS011;34607;48.520;-1.330;2023-04-28T14:37:54;6.43;;;4.93;;
48795;SDS011;34607;48.520;-1.330;2023-04-28T14:40:22;6.32;;;5.05;;
48795;SDS011;34607;48.520;-1.330;2023-04-28T14:42:51;5.80;;;4.60;;
48795;SDS011;34607;48.520;-1.330;2023-04-28T14:45:18;6.10;;;5.50;;
48795;SDS011;34607;48.520;-1.330;2023-04-28T14:47:45;5.88;;;5.35;;
48795;SDS011;34607;48.520;-1.330;2023-04-28T14:50:12;5.18;;;4.75;;
48795;SDS011;34607;48.520;-1.330;2023-04-28T14:52:40;9.57;;;5.57;;
48795;SDS011;34607;48.520;-1.330;2023-04-28T14:55:07;5.60;;;5.05;;
48795;SDS011;34607;48.520;-1.330;2023-04-28T14:57:34;6.00;;;5.45;;
48795;SDS011;34607;48.520;-1.330;2023-04-28T15:00:03;6.47;;;5.75;;
48795;SDS011;34607;48.520;-1.330;2023-04-28T15:02:32;5.82;;;5.32;;
48795;SDS011;34607;48.520;-1.330;2023-04-28T15:04:59;7.28;;;5.38;;
48795;SDS011;34607;48.520;-1.330;2023-04-28T15:07:27;7.70;;;5.60;;
48795;SDS011;34607;48.520;-1.330;2023-04-28T15:09:55;4.80;;;4.38;;
48795;SDS011;34607;48.520;-1.330;2023-04-28T15:12:23;5.63;;;4.15;;
48795;SDS011;34607;48.520;-1.330;2023-04-28T15:14:50;5.75;;;4.63;;
48795;SDS011;34607;48.520;-1.330;2023-04-28T15:17:19;4.85;;;4.35;;
48795;SDS011;34607;48.520;-1.330;2023-04-28T15:19:47;5.07;;;4.60;;
48795;SDS011;34607;48.520;-1.330;2023-04-28T15:22:14;4.97;;;4.47;;
48795;SDS011;34607;48.520;-1.330;2023-04-28T15:24:41;5.95;;;5.15;;
48795;SDS011;34607;48.520;-1.330;2023-04-28T15:27:08;5.00;;;4.50;;
48795;SDS011;34607;48.520;-1.330;2023-04-28T15:29:35;5.25;;;4.75;;
48795;SDS011;34607;48.520;-1.330;2023-04-28T15:32:03;5.00;;;4.43;;
48795;SDS011;34607;48.520;-1.330;2023-04-28T15:34:32;4.65;;;4.18;;
48795;SDS011;34607;48.520;-1.330;2023-04-28T15:37:00;4.70;;;4.10;;
48795;SDS011;34607;48.520;-1.330;2023-04-28T15:39:31;6.03;;;4.88;;
48795;SDS011;34607;48.520;-1.330;2023-04-28T15:41:58;7.70;;;5.03;;
48795;SDS011;34607;48.520;-1.330;2023-04-28T15:44:25;4.85;;;4.20;;
48795;SDS011;34607;48.520;-1.330;2023-04-28T15:46:52;5.97;;;4.43;;
48795;SDS011;34607;48.520;-1.330;2023-04-28T15:49:19;4.43;;;4.03;;
48795;SDS011;34607;48.520;-1.330;2023-04-28T15:51:47;4.97;;;4.45;;
48795;SDS011;34607;48.520;-1.330;2023-04-28T15:54:14;5.13;;;4.40;;
48795;SDS011;34607;48.520;-1.330;2023-04-28T15:56:42;5.53;;;3.75;;
48795;SDS011;34607;48.520;-1.330;2023-04-28T15:59:09;5.32;;;4.07;;
48795;SDS011;34607;48.520;-1.330;2023-04-28T16:01:39;5.28;;;4.30;;
48795;SDS011;34607;48.520;-1.330;2023-04-28T16:04:06;4.82;;;3.95;;
48795;SDS011;34607;48.520;-1.330;2023-04-28T16:06:33;4.30;;;3.90;;
48795;SDS011;34607;48.520;-1.330;2023-04-28T16:09:02;5.72;;;3.65;;
48795;SDS011;34607;48.520;-1.330;2023-04-28T16:11:29;6.03;;;3.97;;
48795;SDS011;34607;48.520;-1.330;2023-04-28T16:13:56;3.92;;;3.20;;
48795;SDS011;34607;48.520;-1.330;2023-04-28T16:16:23;4.22;;;3.90;;
48795;SDS011;34607;48.520;-1.330;2023-04-28T16:18:51;4.70;;;3.70;;
48795;SDS011;34607;48.520;-1.330;2023-04-28T16:21:19;4.95;;;4.22;;
48795;SDS011;34607;48.520;-1.330;2023-04-28T16:23:48;4.68;;;4.03;;
48795;SDS011;34607;48.520;-1.330;2023-04-28T16:26:17;4.90;;;4.40;;
48795;SDS011;34607;48.520;-1.330;2023-04-28T16:28:44;5.53;;;4.80;;
48795;SDS011;34607;48.520;-1.330;2023-04-28T16:31:11;5.32;;;4.30;;
48795;SDS011;34607;48.520;-1.330;2023-04-28T16:33:38;4.30;;;3.90;;
48795;SDS011;34607;48.520;-1.330;2023-04-28T16:36:05;5.10;;;3.90;;
48795;SDS011;34607;48.520;-1.330;2023-04-28T16:38:33;4.60;;;4.20;;
48795;SDS011;34607;48.520;-1.330;2023-04-28T16:41:00;4.32;;;3.67;;
48795;SDS011;34607;48.520;-1.330;2023-04-28T16:43:28;4.30;;;3.80;;
48795;SDS011;34607;48.520;-1.330;2023-04-28T16:45:57;3.92;;;3.53;;
48795;SDS011;34607;48.520;-1.330;2023-04-28T16:48:24;5.50;;;4.57;;
48795;SDS011;34607;48.520;-1.330;2023-04-28T16:50:51;5.80;;;4.18;;
48795;SDS011;34607;48.520;-1.330;2023-04-28T16:53:18;4.57;;;4.18;;
48795;SDS011;34607;48.520;-1.330;2023-04-28T16:55:45;4.97;;;4.47;;
48795;SDS011;34607;48.520;-1.330;2023-04-28T16:58:12;4.32;;;3.92;;
48795;SDS011;34607;48.520;-1.330;2023-04-28T17:00:41;5.03;;;4.10;;
48795;SDS011;34607;48.520;-1.330;2023-04-28T17:03:08;4.63;;;4.22;;
48795;SDS011;34607;48.520;-1.330;2023-04-28T17:05:35;5.03;;;4.53;;
48795;SDS011;34607;48.520;-1.330;2023-04-28T17:08:02;5.00;;;4.35;;
48795;SDS011;34607;48.520;-1.330;2023-04-28T17:10:29;6.00;;;4.85;;
48795;SDS011;34607;48.520;-1.330;2023-04-28T17:12:56;5.53;;;4.93;;
48795;SDS011;34607;48.520;-1.330;2023-04-28T17:15:24;5.63;;;5.13;;
48795;SDS011;34607;48.520;-1.330;2023-04-28T17:17:52;7.60;;;5.80;;
48795;SDS011;34607;48.520;-1.330;2023-04-28T17:20:20;6.82;;;5.13;;
48795;SDS011;34607;48.520;-1.330;2023-04-28T17:22:47;6.13;;;5.53;;
48795;SDS011;34607;48.520;-1.330;2023-04-28T17:25:15;8.82;;;6.93;;
48795;SDS011;34607;48.520;-1.330;2023-04-28T17:27:42;7.18;;;5.97;;
48795;SDS011;34607;48.520;-1.330;2023-04-28T17:30:10;8.38;;;6.10;;
48795;SDS011;34607;48.520;-1.330;2023-04-28T17:32:37;7.45;;;5.90;;
48795;SDS011;34607;48.520;-1.330;2023-04-28T17:35:07;7.90;;;5.90;;
48795;SDS011;34607;48.520;-1.330;2023-04-28T17:37:34;7.13;;;5.82;;
48795;SDS011;34607;48.520;-1.330;2023-04-28T17:40:02;7.47;;;6.22;;
48795;SDS011;34607;48.520;-1.330;2023-04-28T17:42:29;11.23;;;4.60;;
48795;SDS011;34607;48.520;-1.330;2023-04-28T17:44:57;4.97;;;4.47;;
48795;SDS011;34607;48.520;-1.330;2023-04-28T17:47:24;5.75;;;5.15;;
48795;SDS011;34607;48.520;-1.330;2023-04-28T17:49:52;5.85;;;5.15;;
48795;SDS011;34607;48.520;-1.330;2023-04-28T17:52:21;8.30;;;6.00;;
48795;SDS011;34607;48.520;-1.330;2023-04-28T17:54:48;7.07;;;6.38;;
48795;SDS011;34607;48.520;-1.330;2023-04-28T17:57:15;7.60;;;6.38;;
48795;SDS011;34607;48.520;-1.330;2023-04-28T17:59:42;6.88;;;5.95;;
48795;SDS011;34607;48.520;-1.330;2023-04-28T18:02:11;7.03;;;5.70;;
48795;SDS011;34607;48.520;-1.330;2023-04-28T18:04:38;7.30;;;6.32;;
48795;SDS011;34607;48.520;-1.330;2023-04-28T18:07:05;9.88;;;6.40;;
48795;SDS011;34607;48.520;-1.330;2023-04-28T18:09:34;8.30;;;6.03;;
48795;SDS011;34607;48.520;-1.330;2023-04-28T18:12:01;7.47;;;5.80;;
48795;SDS011;34607;48.520;-1.330;2023-04-28T18:14:28;9.38;;;5.88;;
48795;SDS011;34607;48.520;-1.330;2023-04-28T18:16:56;11.35;;;6.00;;
48795;SDS011;34607;48.520;-1.330;2023-04-28T18:19:24;6.05;;;5.43;;
48795;SDS011;34607;48.520;-1.330;2023-04-28T18:21:51;6.25;;;5.20;;
48795;SDS011;34607;48.520;-1.330;2023-04-28T18:24:19;6.55;;;5.43;;
48795;SDS011;34607;48.520;-1.330;2023-04-28T18:26:48;7.40;;;4.95;;
48795;SDS011;34607;48.520;-1.330;2023-04-28T18:29:15;7.13;;;6.22;;
48795;SDS011;34607;48.520;-1.330;2023-04-28T18:31:43;7.60;;;5.88;;
48795;SDS011;34607;48.520;-1.330;2023-04-28T18:34:10;7.20;;;6.20;;
48795;SDS011;34607;48.520;-1.330;2023-04-28T18:36:37;9.27;;;6.93;;
48795;SDS011;34607;48.520;-1.330;2023-04-28T18:39:04;9.68;;;6.75;;
48795;SDS011;34607;48.520;-1.330;2023-04-28T18:41:31;7.72;;;6.78;;
48795;SDS011;34607;48.520;-1.330;2023-04-28T18:44:00;8.30;;;7.03;;
48795;SDS011;34607;48.520;-1.330;2023-04-28T18:46:28;10.52;;;7.47;;
48795;SDS011;34607;48.520;-1.330;2023-04-28T18:48:55;9.07;;;7.95;;
48795;SDS011;34607;48.520;-1.330;2023-04-28T18:51:22;11.20;;;7.28;;
48795;SDS011;34607;48.520;-1.330;2023-04-28T18:53:49;7.55;;;6.82;;
48795;SDS011;34607;48.520;-1.330;2023-04-28T18:56:16;8.10;;;6.18;;
48795;SDS011;34607;48.520;-1.330;2023-04-28T18:58:45;8.68;;;6.15;;
48795;SDS011;34607;48.520;-1.330;2023-04-28T19:01:13;6.22;;;5.63;;
48795;SDS011;34607;48.520;-1.330;2023-04-28T19:03:41;7.35;;;6.65;;
48795;SDS011;34607;48.520;-1.330;2023-04-28T19:06:08;8.10;;;6.10;;
48795;SDS011;34607;48.520;-1.330;2023-04-28T19:08:36;6.30;;;5.72;;
48795;SDS011;34607;48.520;-1.330;2023-04-28T19:11:04;7.03;;;5.60;;
48795;SDS011;34607;48.520;-1.330;2023-04-28T19:13:33;7.60;;;7.00;;
48795;SDS011;34607;48.520;-1.330;2023-04-28T19:16:01;7.07;;;5.72;;
48795;SDS011;34607;48.520;-1.330;2023-04-28T19:18:29;8.93;;;6.82;;
48795;SDS011;34607;48.520;-1.330;2023-04-28T19:20:57;6.70;;;6.05;;
48795;SDS011;34607;48.520;-1.330;2023-04-28T19:23:25;12.05;;;6.85;;
48795;SDS011;34607;48.520;-1.330;2023-04-28T19:25:53;8.98;;;6.90;;
48795;SDS011;34607;48.520;-1.330;2023-04-28T19:28:21;7.10;;;6.43;;
48795;SDS011;34607;48.520;-1.330;2023-04-28T19:30:50;7.60;;;6.80;;
48795;SDS011;34607;48.520;-1.330;2023-04-28T19:33:17;6.47;;;5.88;;
48795;SDS011;34607;48.520;-1.330;2023-04-28T19:35:45;5.93;;;5.40;;
48795;SDS011;34607;48.520;-1.330;2023-04-28T19:38:13;6.78;;;5.93;;
48795;SDS011;34607;48.520;-1.330;2023-04-28T19:40:41;7.50;;;6.28;;
48795;SDS011;34607;48.520;-1.330;2023-04-28T19:43:08;10.65;;;7.03;;
48795;SDS011;34607;48.520;-1.330;2023-04-28T19:45:35;9.35;;;5.97;;
48795;SDS011;34607;48.520;-1.330;2023-04-28T19:48:02;8.38;;;6.82;;
48795;SDS011;34607;48.520;-1.330;2023-04-28T19:50:30;7.85;;;5.82;;
48795;SDS011;34607;48.520;-1.330;2023-04-28T19:52:59;6.72;;;5.30;;
48795;SDS011;34607;48.520;-1.330;2023-04-28T19:55:26;11.20;;;8.35;;
48795;SDS011;34607;48.520;-1.330;2023-04-28T19:57:54;9.40;;;8.45;;
48795;SDS011;34607;48.520;-1.330;2023-04-28T20:00:22;12.35;;;8.50;;
48795;SDS011;34607;48.520;-1.330;2023-04-28T20:02:50;13.23;;;9.25;;
48795;SDS011;34607;48.520;-1.330;2023-04-28T20:05:17;9.10;;;7.63;;
48795;SDS011;34607;48.520;-1.330;2023-04-28T20:07:45;12.55;;;8.52;;
48795;SDS011;34607;48.520;-1.330;2023-04-28T20:10:14;8.77;;;7.82;;
48795;SDS011;34607;48.520;-1.330;2023-04-28T20:12:41;9.40;;;7.63;;
48795;SDS011;34607;48.520;-1.330;2023-04-28T20:15:08;10.10;;;7.75;;
48795;SDS011;34607;48.520;-1.330;2023-04-28T20:17:35;6.00;;;5.25;;
48795;SDS011;34607;48.520;-1.330;2023-04-28T20:20:02;6.40;;;5.75;;
48795;SDS011;34607;48.520;-1.330;2023-04-28T20:22:30;6.22;;;5.63;;
48795;SDS011;34607;48.520;-1.330;2023-04-28T20:24:57;7.72;;;5.53;;
48795;SDS011;34607;48.520;-1.330;2023-04-28T20:27:27;7.07;;;5.75;;
48795;SDS011;34607;48.520;-1.330;2023-04-28T20:29:54;6.70;;;6.00;;
48795;SDS011;34607;48.520;-1.330;2023-04-28T20:32:21;6.53;;;5.82;;
48795;SDS011;34607;48.520;-1.330;2023-04-28T20:34:48;8.95;;;7.00;;
48795;SDS011;34607;48.520;-1.330;2023-04-28T20:37:15;6.03;;;5.43;;
48795;SDS011;34607;48.520;-1.330;2023-04-28T20:39:42;6.35;;;5.75;;
48795;SDS011;34607;48.520;-1.330;2023-04-28T20:42:09;7.03;;;4.97;;
48795;SDS011;34607;48.520;-1.330;2023-04-28T20:44:37;5.65;;;5.13;;
48795;SDS011;34607;48.520;-1.330;2023-04-28T20:47:05;5.72;;;5.13;;
48795;SDS011;34607;48.520;-1.330;2023-04-28T20:49:32;3.25;;;2.95;;
48795;SDS011;34607;48.520;-1.330;2023-04-28T20:52:03;3.20;;;2.88;;
48795;SDS011;34607;48.520;-1.330;2023-04-28T20:54:31;3.60;;;2.83;;
48795;SDS011;34607;48.520;-1.330;2023-04-28T20:57:00;2.90;;;2.50;;
48795;SDS011;34607;48.520;-1.330;2023-04-28T20:59:29;2.78;;;2.50;;
48795;SDS011;34607;48.520;-1.330;2023-04-28T21:01:57;4.13;;;2.83;;
48795;SDS011;34607;48.520;-1.330;2023-04-28T21:04:24;4.95;;;2.58;;
48795;SDS011;34607;48.520;-1.330;2023-04-28T21:06:52;5.03;;;3.13;;
48795;SDS011;34607;48.520;-1.330;2023-04-28T21:09:19;4.47;;;3.08;;
48795;SDS011;34607;48.520;-1.330;2023-04-28T21:11:49;2.95;;;2.63;;
48795;SDS011;34607;48.520;-1.330;2023-04-28T21:14:16;3.38;;;2.80;;
48795;SDS011;34607;48.520;-1.330;2023-04-28T21:16:43;4.97;;;2.97;;
48795;SDS011;34607;48.520;-1.330;2023-04-28T21:19:11;5.95;;;2.97;;
48795;SDS011;34607;48.520;-1.330;2023-04-28T21:21:38;2.65;;;2.30;;
48795;SDS011;34607;48.520;-1.330;2023-04-28T21:24:06;3.67;;;2.63;;
48795;SDS011;34607;48.520;-1.330;2023-04-28T21:26:34;3.78;;;3.03;;
48795;SDS011;34607;48.520;-1.330;2023-04-28T21:29:01;4.10;;;3.08;;
48795;SDS011;34607;48.520;-1.330;2023-04-28T21:31:28;4.68;;;2.92;;
48795;SDS011;34607;48.520;-1.330;2023-04-28T21:33:56;3.80;;;3.20;;
48795;SDS011;34607;48.520;-1.330;2023-04-28T21:36:24;6.45;;;3.15;;
48795;SDS011;34607;48.520;-1.330;2023-04-28T21:38:51;3.17;;;2.72;;